sensor_id;sensor_type;location;lat;lon;timestamp;pressure;altitude;pressure_sealevel;temperature;humidity
62072;BME280;48031;48.542;13.232;2023-06-10T00:03:57;96938.00;;;21.32;55.54
62072;BME280;48031;48.542;13.232;2023-06-10T00:07:59;96935.03;;;21.45;54.88
62072;BME280;48031;48.542;13.232;2023-06-10T00:12:01;96929.41;;;21.33;55.11
62072;BME280;48031;48.542;13.232;2023-06-10T00:16:03;96933.00;;;21.25;55.29
62072;BME280;48031;48.542;13.232;2023-06-10T00:20:09;96942.00;;;21.43;55.38
62072;BME280;48031;48.542;13.232;2023-06-10T00:24:14;96942.97;;;21.18;55.35
62072;BME280;48031;48.542;13.232;2023-06-10T00:28:16;96937.53;;;21.30;55.05
62072;BME280;48031;48.542;13.232;2023-06-10T00:32:17;96937.88;;;21.28;55.15
62072;BME280;48031;48.542;13.232;2023-06-10T00:36:20;96944.56;;;21.19;55.40
62072;BME280;48031;48.542;13.232;2023-06-10T00:40:22;96940.34;;;21.12;55.61
62072;BME280;48031;48.542;13.232;2023-06-10T00:44:23;96936.44;;;21.13;55.29
62072;BME280;48031;48.542;13.232;2023-06-10T00:48:26;96931.59;;;21.48;55.04
62072;BME280;48031;48.542;13.232;2023-06-10T00:52:29;96933.38;;;21.15;55.76
62072;BME280;48031;48.542;13.232;2023-06-10T00:56:32;96917.38;;;21.58;55.05
62072;BME280;48031;48.542;13.232;2023-06-10T01:00:36;96914.22;;;21.10;55.53
62072;BME280;48031;48.542;13.232;2023-06-10T01:04:38;96920.25;;;21.03;55.50
62072;BME280;48031;48.542;13.232;2023-06-10T01:13:02;96920.00;;;20.88;56.23
62072;BME280;48031;48.542;13.232;2023-06-10T01:17:06;96927.81;;;20.77;56.45
62072;BME280;48031;48.542;13.232;2023-06-10T01:21:20;96930.41;;;20.73;57.32
62072;BME280;48031;48.542;13.232;2023-06-10T01:25:22;96920.22;;;20.65;56.38
62072;BME280;48031;48.542;13.232;2023-06-10T01:29:44;96921.69;;;21.09;56.26
62072;BME280;48031;48.542;13.232;2023-06-10T01:33:51;96910.00;;;20.57;57.21
62072;BME280;48031;48.542;13.232;2023-06-10T01:37:56;96916.78;;;20.68;56.96
62072;BME280;48031;48.542;13.232;2023-06-10T01:42:00;96920.75;;;20.24;57.58
62072;BME280;48031;48.542;13.232;2023-06-10T01:46:05;96920.94;;;19.93;57.99
62072;BME280;48031;48.542;13.232;2023-06-10T01:50:07;96925.16;;;20.17;57.53
62072;BME280;48031;48.542;13.232;2023-06-10T01:54:09;96916.84;;;20.25;56.80
62072;BME280;48031;48.542;13.232;2023-06-10T01:58:11;96920.94;;;20.11;57.20
62072;BME280;48031;48.542;13.232;2023-06-10T02:02:14;96919.94;;;20.07;57.44
62072;BME280;48031;48.542;13.232;2023-06-10T02:06:15;96922.69;;;20.07;57.53
62072;BME280;48031;48.542;13.232;2023-06-10T02:10:17;96930.31;;;20.01;58.04
62072;BME280;48031;48.542;13.232;2023-06-10T02:14:19;96934.53;;;19.99;58.02
62072;BME280;48031;48.542;13.232;2023-06-10T02:18:21;96936.44;;;19.55;58.81
62072;BME280;48031;48.542;13.232;2023-06-10T02:22:23;96940.81;;;19.56;59.03
62072;BME280;48031;48.542;13.232;2023-06-10T02:26:25;96946.06;;;19.83;58.10
62072;BME280;48031;48.542;13.232;2023-06-10T02:30:28;96937.63;;;19.97;57.45
62072;BME280;48031;48.542;13.232;2023-06-10T02:34:29;96948.50;;;19.93;57.19
62072;BME280;48031;48.542;13.232;2023-06-10T02:38:33;96938.59;;;19.92;57.10
62072;BME280;48031;48.542;13.232;2023-06-10T02:42:35;96947.19;;;19.82;57.56
62072;BME280;48031;48.542;13.232;2023-06-10T02:46:37;96941.50;;;19.87;57.28
62072;BME280;48031;48.542;13.232;2023-06-10T02:50:39;96948.63;;;19.80;57.73
62072;BME280;48031;48.542;13.232;2023-06-10T02:54:52;96947.34;;;19.95;57.56
62072;BME280;48031;48.542;13.232;2023-06-10T02:58:54;96948.50;;;19.93;56.78
62072;BME280;48031;48.542;13.232;2023-06-10T03:02:58;96952.34;;;20.01;56.74
62072;BME280;48031;48.542;13.232;2023-06-10T03:07:09;96954.44;;;19.61;57.35
62072;BME280;48031;48.542;13.232;2023-06-10T03:11:12;96958.78;;;19.54;57.80
62072;BME280;48031;48.542;13.232;2023-06-10T03:15:15;96950.41;;;19.84;57.06
62072;BME280;48031;48.542;13.232;2023-06-10T03:19:18;96961.09;;;19.77;57.76
62072;BME280;48031;48.542;13.232;2023-06-10T03:23:23;96960.41;;;19.63;58.56
62072;BME280;48031;48.542;13.232;2023-06-10T03:27:26;96967.56;;;19.64;58.50
62072;BME280;48031;48.542;13.232;2023-06-10T03:31:34;96973.44;;;19.40;58.61
62072;BME280;48031;48.542;13.232;2023-06-10T03:35:41;96976.09;;;19.45;58.00
62072;BME280;48031;48.542;13.232;2023-06-10T03:39:45;96972.41;;;19.50;57.58
62072;BME280;48031;48.542;13.232;2023-06-10T03:43:47;96975.25;;;19.45;57.99
62072;BME280;48031;48.542;13.232;2023-06-10T03:47:49;96982.59;;;19.49;58.47
62072;BME280;48031;48.542;13.232;2023-06-10T03:51:57;96990.56;;;19.29;59.14
62072;BME280;48031;48.542;13.232;2023-06-10T03:56:00;96982.66;;;20.01;56.69
62072;BME280;48031;48.542;13.232;2023-06-10T04:00:05;96991.44;;;20.29;55.92
62072;BME280;48031;48.542;13.232;2023-06-10T04:04:17;96992.34;;;19.73;57.29
62072;BME280;48031;48.542;13.232;2023-06-10T04:08:20;96979.72;;;19.72;57.52
62072;BME280;48031;48.542;13.232;2023-06-10T04:12:23;96988.75;;;19.55;58.41
62072;BME280;48031;48.542;13.232;2023-06-10T04:16:25;96992.94;;;19.52;59.30
62072;BME280;48031;48.542;13.232;2023-06-10T04:20:27;96995.25;;;19.68;58.79
62072;BME280;48031;48.542;13.232;2023-06-10T04:24:30;96989.13;;;19.71;59.20
62072;BME280;48031;48.542;13.232;2023-06-10T04:28:32;96996.06;;;19.60;59.90
62072;BME280;48031;48.542;13.232;2023-06-10T04:32:34;96993.88;;;20.05;59.66
62072;BME280;48031;48.542;13.232;2023-06-10T04:36:37;96992.88;;;20.18;59.24
62072;BME280;48031;48.542;13.232;2023-06-10T04:40:39;96995.63;;;20.18;60.01
62072;BME280;48031;48.542;13.232;2023-06-10T04:44:43;96987.75;;;20.33;59.84
62072;BME280;48031;48.542;13.232;2023-06-10T04:48:46;96991.47;;;20.46;59.25
62072;BME280;48031;48.542;13.232;2023-06-10T04:52:49;96986.41;;;20.65;58.77
62072;BME280;48031;48.542;13.232;2023-06-10T04:56:52;96979.22;;;20.90;58.33
62072;BME280;48031;48.542;13.232;2023-06-10T05:00:54;96990.28;;;20.82;58.83
62072;BME280;48031;48.542;13.232;2023-06-10T05:04:56;96983.75;;;20.95;58.59
62072;BME280;48031;48.542;13.232;2023-06-10T05:08:59;96981.28;;;21.02;58.59
62072;BME280;48031;48.542;13.232;2023-06-10T05:13:01;96991.66;;;21.22;58.01
62072;BME280;48031;48.542;13.232;2023-06-10T05:17:05;96977.34;;;21.29;58.20
62072;BME280;48031;48.542;13.232;2023-06-10T05:21:08;96984.63;;;21.92;56.89
62072;BME280;48031;48.542;13.232;2023-06-10T05:25:10;96988.63;;;21.44;57.80
62072;BME280;48031;48.542;13.232;2023-06-10T05:29:12;96992.94;;;21.25;58.95
62072;BME280;48031;48.542;13.232;2023-06-10T05:33:15;96991.47;;;21.27;59.21
62072;BME280;48031;48.542;13.232;2023-06-10T05:37:17;96995.84;;;21.28;59.34
62072;BME280;48031;48.542;13.232;2023-06-10T05:41:18;96994.16;;;21.44;59.11
62072;BME280;48031;48.542;13.232;2023-06-10T05:45:20;96987.53;;;21.37;59.64
62072;BME280;48031;48.542;13.232;2023-06-10T05:49:22;96993.28;;;21.52;59.27
62072;BME280;48031;48.542;13.232;2023-06-10T05:53:24;96995.94;;;21.40;59.27
62072;BME280;48031;48.542;13.232;2023-06-10T05:57:26;96992.78;;;21.59;59.01
62072;BME280;48031;48.542;13.232;2023-06-10T06:01:28;96991.94;;;21.67;58.58
62072;BME280;48031;48.542;13.232;2023-06-10T06:05:29;96994.25;;;21.86;58.40
62072;BME280;48031;48.542;13.232;2023-06-10T06:09:36;96997.44;;;21.96;58.13
62072;BME280;48031;48.542;13.232;2023-06-10T06:13:38;96998.47;;;22.13;57.90
62072;BME280;48031;48.542;13.232;2023-06-10T06:17:39;96995.13;;;21.78;57.64
62072;BME280;48031;48.542;13.232;2023-06-10T06:21:41;96988.50;;;22.00;57.76
62072;BME280;48031;48.542;13.232;2023-06-10T06:25:43;96988.84;;;22.19;57.59
62072;BME280;48031;48.542;13.232;2023-06-10T06:29:45;96995.19;;;22.19;57.39
62072;BME280;48031;48.542;13.232;2023-06-10T06:33:47;96996.25;;;22.27;57.22
62072;BME280;48031;48.542;13.232;2023-06-10T06:37:49;96991.97;;;22.17;57.42
62072;BME280;48031;48.542;13.232;2023-06-10T06:41:56;96998.56;;;22.46;57.28
62072;BME280;48031;48.542;13.232;2023-06-10T06:46:15;97004.16;;;22.37;57.90
62072;BME280;48031;48.542;13.232;2023-06-10T06:50:19;97005.47;;;22.52;57.38
62072;BME280;48031;48.542;13.232;2023-06-10T06:54:20;97009.88;;;22.53;57.93
62072;BME280;48031;48.542;13.232;2023-06-10T06:58:22;97017.44;;;22.44;57.62
62072;BME280;48031;48.542;13.232;2023-06-10T07:02:24;97018.09;;;22.61;57.77
62072;BME280;48031;48.542;13.232;2023-06-10T07:06:26;97015.41;;;22.53;56.99
62072;BME280;48031;48.542;13.232;2023-06-10T07:10:28;97021.47;;;22.46;58.12
62072;BME280;48031;48.542;13.232;2023-06-10T07:14:30;97020.81;;;22.49;57.10
62072;BME280;48031;48.542;13.232;2023-06-10T07:18:31;97034.63;;;22.70;55.69
62072;BME280;48031;48.542;13.232;2023-06-10T07:22:33;97030.53;;;22.76;57.30
62072;BME280;48031;48.542;13.232;2023-06-10T07:26:35;97031.25;;;22.64;56.28
62072;BME280;48031;48.542;13.232;2023-06-10T07:30:37;97035.13;;;22.72;56.37
62072;BME280;48031;48.542;13.232;2023-06-10T07:34:39;97036.63;;;23.02;55.56
62072;BME280;48031;48.542;13.232;2023-06-10T07:38:41;97031.63;;;23.29;54.42
62072;BME280;48031;48.542;13.232;2023-06-10T07:42:44;97030.03;;;23.40;54.56
62072;BME280;48031;48.542;13.232;2023-06-10T07:46:45;97030.47;;;23.42;54.29
62072;BME280;48031;48.542;13.232;2023-06-10T07:50:47;97035.03;;;24.07;51.62
62072;BME280;48031;48.542;13.232;2023-06-10T07:54:49;97040.19;;;24.45;51.49
62072;BME280;48031;48.542;13.232;2023-06-10T07:58:52;97050.31;;;24.65;51.45
62072;BME280;48031;48.542;13.232;2023-06-10T08:02:54;97045.88;;;24.89;50.85
62072;BME280;48031;48.542;13.232;2023-06-10T08:06:56;97042.63;;;25.74;49.03
62072;BME280;48031;48.542;13.232;2023-06-10T08:10:58;97044.28;;;26.09;48.10
62072;BME280;48031;48.542;13.232;2023-06-10T08:15:00;97056.34;;;25.66;49.75
62072;BME280;48031;48.542;13.232;2023-06-10T08:19:02;97051.50;;;25.79;49.49
62072;BME280;48031;48.542;13.232;2023-06-10T08:23:04;97055.78;;;25.92;50.06
62072;BME280;48031;48.542;13.232;2023-06-10T08:27:06;97062.44;;;25.88;49.93
62072;BME280;48031;48.542;13.232;2023-06-10T08:31:08;97065.00;;;26.12;49.65
62072;BME280;48031;48.542;13.232;2023-06-10T08:35:09;97056.03;;;26.19;49.45
62072;BME280;48031;48.542;13.232;2023-06-10T08:39:12;97057.03;;;26.61;47.87
62072;BME280;48031;48.542;13.232;2023-06-10T08:43:22;97056.09;;;26.73;48.47
62072;BME280;48031;48.542;13.232;2023-06-10T08:47:29;97061.09;;;27.02;47.15
62072;BME280;48031;48.542;13.232;2023-06-10T08:51:35;97054.34;;;27.22;47.73
62072;BME280;48031;48.542;13.232;2023-06-10T08:55:41;97054.91;;;27.96;45.40
62072;BME280;48031;48.542;13.232;2023-06-10T08:59:44;97062.06;;;26.91;48.05
62072;BME280;48031;48.542;13.232;2023-06-10T09:03:46;97057.63;;;27.28;46.99
62072;BME280;48031;48.542;13.232;2023-06-10T09:07:48;97060.53;;;27.54;45.72
62072;BME280;48031;48.542;13.232;2023-06-10T09:11:50;97059.59;;;27.47;46.08
62072;BME280;48031;48.542;13.232;2023-06-10T09:15:52;97068.47;;;27.52;46.00
62072;BME280;48031;48.542;13.232;2023-06-10T09:19:54;97063.03;;;27.40;46.06
62072;BME280;48031;48.542;13.232;2023-06-10T09:23:57;97065.41;;;27.00;46.11
62072;BME280;48031;48.542;13.232;2023-06-10T09:27:59;97066.00;;;27.09;45.13
62072;BME280;48031;48.542;13.232;2023-06-10T09:32:01;97073.66;;;26.58;47.31
62072;BME280;48031;48.542;13.232;2023-06-10T09:36:03;97068.44;;;26.56;47.71
62072;BME280;48031;48.542;13.232;2023-06-10T09:40:07;97069.59;;;27.09;46.55
62072;BME280;48031;48.542;13.232;2023-06-10T09:44:12;97060.78;;;26.88;46.92
62072;BME280;48031;48.542;13.232;2023-06-10T09:48:14;97057.47;;;27.21;46.78
62072;BME280;48031;48.542;13.232;2023-06-10T09:52:26;97064.09;;;27.74;46.07
62072;BME280;48031;48.542;13.232;2023-06-10T09:56:35;97058.97;;;28.02;44.11
62072;BME280;48031;48.542;13.232;2023-06-10T10:00:37;97049.75;;;27.76;44.28
62072;BME280;48031;48.542;13.232;2023-06-10T10:04:39;97061.28;;;27.51;45.31
62072;BME280;48031;48.542;13.232;2023-06-10T10:08:41;97060.16;;;27.37;46.85
62072;BME280;48031;48.542;13.232;2023-06-10T10:12:46;97058.78;;;27.27;46.80
62072;BME280;48031;48.542;13.232;2023-06-10T10:16:49;97056.84;;;27.08;47.95
62072;BME280;48031;48.542;13.232;2023-06-10T10:20:52;97065.94;;;27.24;46.62
62072;BME280;48031;48.542;13.232;2023-06-10T10:24:59;97058.28;;;27.21;45.30
62072;BME280;48031;48.542;13.232;2023-06-10T10:29:52;97056.69;;;27.62;45.68
62072;BME280;48031;48.542;13.232;2023-06-10T10:33:59;97053.09;;;27.43;45.15
62072;BME280;48031;48.542;13.232;2023-06-10T10:38:02;97043.75;;;27.31;45.29
62072;BME280;48031;48.542;13.232;2023-06-10T10:42:04;97044.78;;;27.88;45.25
62072;BME280;48031;48.542;13.232;2023-06-10T10:46:12;97044.25;;;27.79;45.09
62072;BME280;48031;48.542;13.232;2023-06-10T10:50:17;97040.81;;;27.89;44.41
62072;BME280;48031;48.542;13.232;2023-06-10T10:54:28;97041.66;;;28.42;43.70
62072;BME280;48031;48.542;13.232;2023-06-10T10:58:31;97039.47;;;27.80;44.76
62072;BME280;48031;48.542;13.232;2023-06-10T11:02:35;97037.50;;;27.57;45.53
62072;BME280;48031;48.542;13.232;2023-06-10T11:06:52;97041.75;;;28.20;43.86
62072;BME280;48031;48.542;13.232;2023-06-10T11:10:54;97032.09;;;27.68;45.45
62072;BME280;48031;48.542;13.232;2023-06-10T11:14:56;97026.75;;;27.82;45.00
62072;BME280;48031;48.542;13.232;2023-06-10T11:18:58;97033.25;;;27.90;45.50
62072;BME280;48031;48.542;13.232;2023-06-10T11:23:01;97037.41;;;28.52;43.17
62072;BME280;48031;48.542;13.232;2023-06-10T11:27:20;97020.75;;;29.59;42.71
62072;BME280;48031;48.542;13.232;2023-06-10T11:31:24;97017.91;;;30.47;40.54
62072;BME280;48031;48.542;13.232;2023-06-10T11:35:26;97023.06;;;29.50;41.28
62072;BME280;48031;48.542;13.232;2023-06-10T11:39:29;97024.25;;;29.49;40.66
62072;BME280;48031;48.542;13.232;2023-06-10T11:43:31;97021.97;;;29.62;40.86
62072;BME280;48031;48.542;13.232;2023-06-10T11:47:33;97022.84;;;30.17;39.25
62072;BME280;48031;48.542;13.232;2023-06-10T11:51:39;97017.88;;;31.37;36.81
62072;BME280;48031;48.542;13.232;2023-06-10T11:55:42;97023.41;;;31.16;36.87
62072;BME280;48031;48.542;13.232;2023-06-10T11:59:44;97017.81;;;30.44;37.31
62072;BME280;48031;48.542;13.232;2023-06-10T12:03:46;97030.53;;;30.27;38.50
62072;BME280;48031;48.542;13.232;2023-06-10T12:07:48;97020.72;;;29.56;39.52
62072;BME280;48031;48.542;13.232;2023-06-10T12:12:01;97017.19;;;30.72;37.30
62072;BME280;48031;48.542;13.232;2023-06-10T12:16:08;97018.63;;;32.83;34.25
62072;BME280;48031;48.542;13.232;2023-06-10T12:20:27;97019.41;;;34.26;31.58
62072;BME280;48031;48.542;13.232;2023-06-10T12:24:29;97011.88;;;34.09;31.65
62072;BME280;48031;48.542;13.232;2023-06-10T12:28:31;97008.81;;;35.42;30.29
62072;BME280;48031;48.542;13.232;2023-06-10T12:32:44;97008.97;;;35.32;30.13
62072;BME280;48031;48.542;13.232;2023-06-10T12:36:50;96990.97;;;37.28;26.30
62072;BME280;48031;48.542;13.232;2023-06-10T12:40:51;96992.53;;;38.62;25.49
62072;BME280;48031;48.542;13.232;2023-06-10T12:44:53;97001.69;;;37.37;26.63
62072;BME280;48031;48.542;13.232;2023-06-10T12:48:56;96997.53;;;36.19;29.07
62072;BME280;48031;48.542;13.232;2023-06-10T12:52:59;96990.53;;;36.90;26.78
62072;BME280;48031;48.542;13.232;2023-06-10T12:57:02;96982.31;;;38.20;25.87
62072;BME280;48031;48.542;13.232;2023-06-10T13:01:04;96975.44;;;39.62;24.42
62072;BME280;48031;48.542;13.232;2023-06-10T13:05:06;96967.13;;;41.70;22.53
62072;BME280;48031;48.542;13.232;2023-06-10T13:09:10;96976.72;;;42.53;21.44
62072;BME280;48031;48.542;13.232;2023-06-10T13:13:12;96959.81;;;42.00;20.91
62072;BME280;48031;48.542;13.232;2023-06-10T13:17:16;96948.31;;;43.73;19.22
62072;BME280;48031;48.542;13.232;2023-06-10T13:21:18;96952.78;;;42.50;21.41
62072;BME280;48031;48.542;13.232;2023-06-10T13:25:20;96944.03;;;43.18;19.59
62072;BME280;48031;48.542;13.232;2023-06-10T13:29:22;96956.63;;;42.75;19.53
62072;BME280;48031;48.542;13.232;2023-06-10T13:33:23;96957.69;;;43.23;18.21
62072;BME280;48031;48.542;13.232;2023-06-10T13:37:25;96946.13;;;43.59;19.06
62072;BME280;48031;48.542;13.232;2023-06-10T13:41:27;96944.66;;;43.73;18.81
62072;BME280;48031;48.542;13.232;2023-06-10T13:45:30;96951.78;;;44.10;19.43
62072;BME280;48031;48.542;13.232;2023-06-10T13:49:32;96950.72;;;42.69;19.49
62072;BME280;48031;48.542;13.232;2023-06-10T13:53:34;96949.41;;;41.75;21.33
62072;BME280;48031;48.542;13.232;2023-06-10T13:57:36;96954.66;;;39.77;22.70
62072;BME280;48031;48.542;13.232;2023-06-10T14:01:38;96947.63;;;40.85;21.99
62072;BME280;48031;48.542;13.232;2023-06-10T14:05:40;96949.38;;;42.15;20.93
62072;BME280;48031;48.542;13.232;2023-06-10T14:09:42;96950.41;;;42.49;20.11
62072;BME280;48031;48.542;13.232;2023-06-10T14:13:44;96960.53;;;40.99;20.89
62072;BME280;48031;48.542;13.232;2023-06-10T14:17:45;96956.81;;;37.55;25.57
62072;BME280;48031;48.542;13.232;2023-06-10T14:21:47;96965.47;;;34.95;41.11
62072;BME280;48031;48.542;13.232;2023-06-10T14:25:51;96966.78;;;32.95;35.64
62072;BME280;48031;48.542;13.232;2023-06-10T14:29:52;96975.81;;;31.94;39.38
62072;BME280;48031;48.542;13.232;2023-06-10T14:33:54;96993.41;;;31.27;39.84
62072;BME280;48031;48.542;13.232;2023-06-10T14:37:56;96995.78;;;30.35;43.34
62072;BME280;48031;48.542;13.232;2023-06-10T14:41:58;96995.66;;;30.14;45.05
62072;BME280;48031;48.542;13.232;2023-06-10T14:45:59;96998.06;;;29.68;44.96
62072;BME280;48031;48.542;13.232;2023-06-10T14:50:01;97017.91;;;29.52;45.71
62072;BME280;48031;48.542;13.232;2023-06-10T14:54:03;97027.66;;;28.99;48.10
62072;BME280;48031;48.542;13.232;2023-06-10T14:58:05;97015.03;;;29.12;48.25
62072;BME280;48031;48.542;13.232;2023-06-10T15:02:07;97002.75;;;29.20;48.94
62072;BME280;48031;48.542;13.232;2023-06-10T15:06:09;97034.69;;;28.85;48.64
62072;BME280;48031;48.542;13.232;2023-06-10T15:10:11;97054.53;;;28.77;47.86
62072;BME280;48031;48.542;13.232;2023-06-10T15:14:13;97054.44;;;28.17;49.00
62072;BME280;48031;48.542;13.232;2023-06-10T15:18:15;97055.88;;;28.60;47.85
62072;BME280;48031;48.542;13.232;2023-06-10T15:22:17;97066.09;;;28.00;48.27
62072;BME280;48031;48.542;13.232;2023-06-10T15:26:19;97070.03;;;27.95;47.56
62072;BME280;48031;48.542;13.232;2023-06-10T15:30:21;97078.16;;;27.58;48.49
62072;BME280;48031;48.542;13.232;2023-06-10T15:34:22;97085.91;;;27.49;50.11
62072;BME280;48031;48.542;13.232;2023-06-10T15:38:24;97088.78;;;27.34;47.37
62072;BME280;48031;48.542;13.232;2023-06-10T15:42:26;97078.69;;;27.06;48.13
62072;BME280;48031;48.542;13.232;2023-06-10T15:46:29;97057.50;;;27.02;47.73
62072;BME280;48031;48.542;13.232;2023-06-10T15:50:31;97055.91;;;26.66;49.26
62072;BME280;48031;48.542;13.232;2023-06-10T15:54:33;97060.97;;;26.60;50.63
62072;BME280;48031;48.542;13.232;2023-06-10T15:58:35;97064.38;;;26.34;50.58
62072;BME280;48031;48.542;13.232;2023-06-10T16:02:37;97066.25;;;26.46;50.66
62072;BME280;48031;48.542;13.232;2023-06-10T16:06:38;97071.16;;;26.53;50.76
62072;BME280;48031;48.542;13.232;2023-06-10T16:10:40;97065.19;;;26.35;51.19
62072;BME280;48031;48.542;13.232;2023-06-10T16:14:42;97067.59;;;26.21;51.67
62072;BME280;48031;48.542;13.232;2023-06-10T16:18:44;97072.91;;;26.10;54.06
62072;BME280;48031;48.542;13.232;2023-06-10T16:22:45;97070.75;;;26.35;53.58
62072;BME280;48031;48.542;13.232;2023-06-10T16:26:47;97074.88;;;26.25;53.27
62072;BME280;48031;48.542;13.232;2023-06-10T16:30:50;97081.28;;;25.94;52.88
62072;BME280;48031;48.542;13.232;2023-06-10T16:34:52;97076.84;;;26.09;52.47
62072;BME280;48031;48.542;13.232;2023-06-10T16:38:53;97068.44;;;26.05;53.09
62072;BME280;48031;48.542;13.232;2023-06-10T16:42:59;97069.78;;;25.96;54.01
62072;BME280;48031;48.542;13.232;2023-06-10T16:47:00;97067.09;;;25.99;54.73
62072;BME280;48031;48.542;13.232;2023-06-10T16:51:02;97065.03;;;25.81;54.77
62072;BME280;48031;48.542;13.232;2023-06-10T16:55:05;97053.91;;;25.81;56.34
62072;BME280;48031;48.542;13.232;2023-06-10T16:59:06;97054.38;;;25.67;56.28
62072;BME280;48031;48.542;13.232;2023-06-10T17:03:09;97064.31;;;25.68;56.09
62072;BME280;48031;48.542;13.232;2023-06-10T17:07:11;97067.38;;;25.63;56.94
62072;BME280;48031;48.542;13.232;2023-06-10T17:11:13;97070.28;;;25.54;56.07
62072;BME280;48031;48.542;13.232;2023-06-10T17:15:15;97075.94;;;26.21;54.43
62072;BME280;48031;48.542;13.232;2023-06-10T17:19:17;97074.34;;;26.35;53.14
62072;BME280;48031;48.542;13.232;2023-06-10T17:23:19;97085.03;;;25.27;55.34
62072;BME280;48031;48.542;13.232;2023-06-10T17:27:21;97079.19;;;25.16;55.83
62072;BME280;48031;48.542;13.232;2023-06-10T17:31:26;97080.94;;;25.09;56.54
62072;BME280;48031;48.542;13.232;2023-06-10T17:35:28;97074.50;;;25.05;55.92
62072;BME280;48031;48.542;13.232;2023-06-10T17:39:30;97076.31;;;25.13;55.92
62072;BME280;48031;48.542;13.232;2023-06-10T17:43:32;97079.13;;;25.01;56.05
62072;BME280;48031;48.542;13.232;2023-06-10T17:47:33;97078.22;;;24.97;56.25
62072;BME280;48031;48.542;13.232;2023-06-10T17:51:35;97081.00;;;24.97;56.24
62072;BME280;48031;48.542;13.232;2023-06-10T17:55:38;97077.53;;;25.00;56.25
62072;BME280;48031;48.542;13.232;2023-06-10T17:59:40;97084.53;;;24.69;57.30
62072;BME280;48031;48.542;13.232;2023-06-10T18:03:42;97095.25;;;24.83;56.50
62072;BME280;48031;48.542;13.232;2023-06-10T18:07:45;97089.47;;;24.76;56.98
62072;BME280;48031;48.542;13.232;2023-06-10T18:11:46;97089.16;;;24.65;57.07
62072;BME280;48031;48.542;13.232;2023-06-10T18:15:48;97088.63;;;24.48;57.36
62072;BME280;48031;48.542;13.232;2023-06-10T18:19:50;97102.16;;;24.49;57.39
62072;BME280;48031;48.542;13.232;2023-06-10T18:23:52;97098.00;;;24.43;57.35
62072;BME280;48031;48.542;13.232;2023-06-10T18:27:54;97106.78;;;24.57;56.91
62072;BME280;48031;48.542;13.232;2023-06-10T18:31:56;97114.72;;;24.59;57.39
62072;BME280;48031;48.542;13.232;2023-06-10T18:35:57;97116.00;;;24.73;56.51
62072;BME280;48031;48.542;13.232;2023-06-10T18:39:59;97124.78;;;24.63;57.00
62072;BME280;48031;48.542;13.232;2023-06-10T18:44:01;97129.16;;;24.76;56.36
62072;BME280;48031;48.542;13.232;2023-06-10T18:48:03;97129.09;;;24.61;56.65
62072;BME280;48031;48.542;13.232;2023-06-10T18:52:06;97132.09;;;25.63;54.64
62072;BME280;48031;48.542;13.232;2023-06-10T18:56:08;97133.72;;;25.80;53.44
62072;BME280;48031;48.542;13.232;2023-06-10T19:00:12;97126.66;;;25.83;53.01
62072;BME280;48031;48.542;13.232;2023-06-10T19:04:14;97139.75;;;25.66;53.09
62072;BME280;48031;48.542;13.232;2023-06-10T19:08:16;97140.78;;;24.42;56.53
62072;BME280;48031;48.542;13.232;2023-06-10T19:12:18;97145.38;;;24.01;57.59
62072;BME280;48031;48.542;13.232;2023-06-10T19:16:20;97140.50;;;23.98;57.96
62072;BME280;48031;48.542;13.232;2023-06-10T19:20:22;97155.19;;;23.99;57.61
62072;BME280;48031;48.542;13.232;2023-06-10T19:24:23;97157.13;;;23.86;57.96
62072;BME280;48031;48.542;13.232;2023-06-10T19:28:25;97165.91;;;23.88;58.65
62072;BME280;48031;48.542;13.232;2023-06-10T19:32:28;97160.63;;;23.95;58.46
62072;BME280;48031;48.542;13.232;2023-06-10T19:36:30;97173.53;;;23.91;58.49
62072;BME280;48031;48.542;13.232;2023-06-10T19:40:31;97169.47;;;23.77;59.06
62072;BME280;48031;48.542;13.232;2023-06-10T19:44:33;97175.72;;;23.86;58.68
62072;BME280;48031;48.542;13.232;2023-06-10T19:48:35;97189.81;;;23.81;59.33
62072;BME280;48031;48.542;13.232;2023-06-10T19:52:37;97194.47;;;23.89;58.82
62072;BME280;48031;48.542;13.232;2023-06-10T19:56:39;97194.09;;;23.78;59.35
62072;BME280;48031;48.542;13.232;2023-06-10T20:00:41;97202.03;;;23.80;59.72
62072;BME280;48031;48.542;13.232;2023-06-10T20:04:42;97184.47;;;23.76;59.37
62072;BME280;48031;48.542;13.232;2023-06-10T20:08:44;97187.19;;;23.84;59.66
62072;BME280;48031;48.542;13.232;2023-06-10T20:12:46;97191.91;;;23.84;59.25
62072;BME280;48031;48.542;13.232;2023-06-10T20:16:48;97197.31;;;23.80;59.28
62072;BME280;48031;48.542;13.232;2023-06-10T20:20:50;97196.94;;;23.70;59.70
62072;BME280;48031;48.542;13.232;2023-06-10T20:24:51;97194.03;;;23.66;59.63
62072;BME280;48031;48.542;13.232;2023-06-10T20:28:53;97199.81;;;23.61;60.00
62072;BME280;48031;48.542;13.232;2023-06-10T20:32:55;97213.56;;;23.70;60.03
62072;BME280;48031;48.542;13.232;2023-06-10T20:36:57;97216.66;;;24.01;59.48
62072;BME280;48031;48.542;13.232;2023-06-10T20:40:59;97204.34;;;24.83;56.37
62072;BME280;48031;48.542;13.232;2023-06-10T20:45:01;97215.13;;;24.85;55.87
62072;BME280;48031;48.542;13.232;2023-06-10T20:49:04;97207.47;;;24.94;54.94
62072;BME280;48031;48.542;13.232;2023-06-10T20:53:06;97212.91;;;24.78;54.92
62072;BME280;48031;48.542;13.232;2023-06-10T20:57:08;97214.31;;;23.58;58.63
62072;BME280;48031;48.542;13.232;2023-06-10T21:01:10;97219.00;;;23.45;59.34
62072;BME280;48031;48.542;13.232;2023-06-10T21:05:12;97210.22;;;23.43;59.23
62072;BME280;48031;48.542;13.232;2023-06-10T21:09:14;97210.53;;;23.42;59.05
62072;BME280;48031;48.542;13.232;2023-06-10T21:13:16;97216.78;;;23.39;59.34
62072;BME280;48031;48.542;13.232;2023-06-10T21:17:17;97209.13;;;23.36;59.20